Decoded Metar for YMHB (HOBART in AUSTRALIA) (IATA:HBA) | Meteo·Mobile Aviation Weather
aviador You're here:

YMHB Decoded Metar

HOBART in AUSTRALIA
Report Time2018-08-19 03:34:00
UTC Time2018-08-19 05:26:49
Flight Rules Old
Wind200° at 23 Gusting to 33 kt
W.Decomp.*RWY 12: 10.1 kt HW 20.7 kt RCW
W.Rank200° ranks 18
Current wind is above 200° avg. (9.5)
Visibility9999 m
Phenomena:N/A
Clouds:Few 040 Hf
Expected CloudBase > 4,800 ft AGL from Temp-Dew spread
CeilingNone
Temp09°C (ISA -6)
Dew Point-3°C (43% RH)
AAT-1.7°C
QNH1015 hPa
Density Alt-607 ft
Elevation89 ft
Report Wrong Elevation
Raw Report
YMHB 190334Z 20023G33KT 9999 FEW040 09/M03 Q1015 RF00/0/001/0=

Extra information for YMHB:More info

Metar Taf Metar & Taf Last 4 Metars F.Rules Stats Wind Profile Meteogram Temp Stats Airport Information Weather charts Add Link Nearby VenuesMetar ALERT Operation Metar Decoded Social comments